Current | Forecast
Updated: 4:00 PM CEST on June 29, 2017
Observed at Pau, France
Temperature 19°C
Humidity 52%
Dew Point 9°C
Wind WNW at 32 km/h
Pressure 1010 hPa (Steady)
Conditions Clear
Visibility -
UV N/A
Clouds
Yesterday's Maximum 25°C
Yesterday's Minimum 14°C approx.
Yesterday's Cooling Degree Days 2 approx.
Sunrise6:26 AM CEST
Sunset9:45 PM CEST
Moon Rise12:31 PM CEST
Moon Set1:01 AM CEST
Moon PhaseMoon Phase
Waxing Crescent
Raw METARMETAR LFBP 291400Z AUTO 29017KT CAVOK 19/09 Q1010 TEMPO 27018G30KT 4000 SHRA BKN010 BKN030TCU


Monday
. High: 66° F.
Tuesday
. High: 69° F.
Wednesday
. High: 55° F.
Thursday
. High: 57° F.
Friday
. High: 69° F.
Saturday
. High: 60° F.
Sunday
. High: 55° F.
Monday
. High: 69° F.

Units: English | Metric

Find the Weather for any City, State or Zipcode, or Country:

U.S. State List | Severe Weather | Tropical Storms | Ski Conditions
United States | Canada | Central America | South America | Asia | Europe | Australia | Africa | Islands

Weather Underground

© Copyright 2017
The Weather Company, LLC